createdAt,value
2023-04-20T00:02:29.382Z,100855.22
2023-04-20T00:05:12.215Z,100851.38
2023-04-20T00:07:46.532Z,100840.59
2023-04-20T00:10:17.124Z,100837.66
2023-04-20T00:12:51.094Z,100837.66
2023-04-20T00:15:24.383Z,100836.28
2023-04-20T00:17:55.725Z,100819.91
2023-04-20T00:20:30.295Z,100822.81
2023-04-20T00:26:53.372Z,100816.75
2023-04-20T00:29:27.466Z,100814.09
2023-04-20T00:32:50.514Z,100807.16
2023-04-20T00:35:26.222Z,100811.53
2023-04-20T00:38:17.750Z,100801.34
2023-04-20T00:41:01.273Z,100804.66
2023-04-20T00:43:35.175Z,100799.34
2023-04-20T00:46:04.681Z,100792.38
2023-04-20T00:48:47.461Z,100798.16
2023-04-20T00:54:35.360Z,100788.06
2023-04-20T00:57:15.096Z,100782.72
2023-04-20T01:00:09.894Z,100776.00
2023-04-20T01:03:20.500Z,100777.03
2023-04-20T01:06:50.049Z,100769.34
2023-04-20T01:09:26.803Z,100761.69
2023-04-20T01:12:21.108Z,100763.75
2023-04-20T01:14:59.338Z,100753.56
2023-04-20T01:18:07.848Z,100752.38
2023-04-20T01:21:12.304Z,100756.53
2023-04-20T01:24:03.154Z,100746.75
2023-04-20T01:26:40.807Z,100744.09
2023-04-20T01:29:12.854Z,100741.66
2023-04-20T01:31:55.083Z,100734.44
2023-04-20T01:34:43.168Z,100736.91
2023-04-20T01:37:12.479Z,100727.50
2023-04-20T01:47:03.602Z,100717.47
2023-04-20T01:49:39.195Z,100713.66
2023-04-20T01:52:17.101Z,100705.75
2023-04-20T01:58:06.547Z,100707.44
2023-04-20T02:01:44.181Z,100709.19
2023-04-20T02:04:18.830Z,100704.75
2023-04-20T02:07:02.278Z,100707.63
2023-04-20T02:12:39.140Z,100708.09
2023-04-20T02:18:35.241Z,100700.19
2023-04-20T02:21:56.349Z,100702.56
2023-04-20T02:24:24.911Z,100693.66
2023-04-20T02:27:00.168Z,100691.09
2023-04-20T02:29:47.141Z,100692.75
2023-04-20T02:32:55.643Z,100683.69
2023-04-20T02:35:24.585Z,100676.28
2023-04-20T02:38:14.126Z,100675.81
2023-04-20T02:41:00.472Z,100678.38
2023-04-20T02:47:20.964Z,100672.34
2023-04-20T02:50:03.613Z,100666.72
2023-04-20T02:53:13.001Z,100672.41
2023-04-20T02:55:57.352Z,100671.72
2023-04-20T02:59:30.807Z,100661.53
2023-04-20T03:02:43.401Z,100655.03
2023-04-20T03:12:53.630Z,100651.59
2023-04-20T03:15:32.269Z,100647.44
2023-04-20T03:19:11.204Z,100645.09
2023-04-20T03:21:39.408Z,100644.88
2023-04-20T03:24:33.668Z,100639.06
2023-04-20T03:30:10.118Z,100635.34
2023-04-20T03:32:45.418Z,100624.69
2023-04-20T03:38:16.922Z,100628.63
2023-04-20T03:44:38.675Z,100636.03
2023-04-20T03:47:25.404Z,100630.81
2023-04-20T04:03:36.209Z,100618.88
2023-04-20T04:08:52.086Z,100617.28
2023-04-20T04:15:36.508Z,100614.75
2023-04-20T04:21:35.381Z,100625.88
2023-04-20T04:24:14.828Z,100626.09
2023-04-20T04:28:06.367Z,100629.31
2023-04-20T04:30:46.005Z,100632.44
2023-04-20T04:33:24.014Z,100625.03
2023-04-20T04:36:01.808Z,100624.13
2023-04-20T04:41:34.347Z,100622.38
2023-04-20T04:44:47.798Z,100622.97
2023-04-20T04:47:43.593Z,100619.06
2023-04-20T04:51:53.799Z,100619.06
2023-04-20T04:54:33.415Z,100614.75
2023-04-20T04:57:00.532Z,100611.28
2023-04-20T05:10:45.932Z,100622.88
2023-04-20T05:13:14.405Z,100621.34
2023-04-20T05:15:43.832Z,100621.72
2023-04-20T05:18:15.604Z,100619.06
2023-04-20T05:20:43.351Z,100613.88
2023-04-20T05:23:17.114Z,100613.31
2023-04-20T05:25:44.205Z,100621.31
2023-04-20T05:28:11.300Z,100616.69
2023-04-20T05:30:38.825Z,100611.00
2023-04-20T05:33:06.127Z,100614.03
2023-04-20T05:35:33.327Z,100610.06
2023-04-20T05:38:02.753Z,100614.25
2023-04-20T05:40:30.388Z,100617.84
2023-04-20T05:43:01.063Z,100618.66
2023-04-20T05:45:30.765Z,100614.59
2023-04-20T05:48:08.033Z,100612.16
2023-04-20T05:50:35.869Z,100618.19
2023-04-20T05:53:03.615Z,100612.13
2023-04-20T05:55:34.402Z,100616.31
2023-04-20T05:58:09.471Z,100609.53
2023-04-20T06:00:39.896Z,100614.28
2023-04-20T06:03:07.411Z,100622.28
2023-04-20T06:05:37.977Z,100622.81
2023-04-20T06:08:22.001Z,100615.22
2023-04-20T06:10:49.308Z,100626.59
2023-04-20T06:13:34.576Z,100626.63
2023-04-20T06:16:02.034Z,100617.13
2023-04-20T06:18:29.827Z,100615.53
2023-04-20T06:20:56.913Z,100620.41
2023-04-20T06:23:25.949Z,100612.78
2023-04-20T06:25:59.412Z,100621.94
2023-04-20T06:28:26.909Z,100618.69
2023-04-20T06:30:58.635Z,100620.31
2023-04-20T06:33:32.514Z,100616.81
2023-04-20T06:36:02.147Z,100613.78
2023-04-20T06:38:35.148Z,100623.69
2023-04-20T06:41:03.499Z,100622.19
2023-04-20T06:43:33.292Z,100619.53
2023-04-20T06:46:00.363Z,100623.91
2023-04-20T06:48:32.793Z,100619.50
2023-04-20T06:51:05.917Z,100617.91
2023-04-20T06:53:38.593Z,100615.09
2023-04-20T06:56:06.461Z,100616.59
2023-04-20T06:58:35.993Z,100613.25
2023-04-20T07:01:17.046Z,100613.19
2023-04-20T07:03:47.506Z,100612.91
2023-04-20T07:06:20.794Z,100616.13
2023-04-20T07:08:51.275Z,100616.34
2023-04-20T07:11:18.105Z,100608.69
2023-04-20T07:13:44.837Z,100611.13
2023-04-20T07:16:15.276Z,100595.56
2023-04-20T07:18:42.266Z,100605.75
2023-04-20T07:21:09.012Z,100601.47
2023-04-20T07:23:38.088Z,100607.66
2023-04-20T07:26:04.986Z,100605.19
2023-04-20T07:28:32.734Z,100597.63
2023-04-20T07:31:05.234Z,100596.56
2023-04-20T07:33:32.344Z,100597.94
2023-04-20T07:35:59.378Z,100600.31
2023-04-20T07:38:27.124Z,100597.38
2023-04-20T07:40:54.015Z,100606.44
2023-04-20T07:43:21.459Z,100607.50
2023-04-20T07:45:48.784Z,100601.94
2023-04-20T07:48:16.238Z,100599.41
2023-04-20T07:50:43.288Z,100599.63
2023-04-20T07:53:10.086Z,100601.97
2023-04-20T07:55:37.274Z,100601.09
2023-04-20T07:58:04.664Z,100605.16
2023-04-20T08:00:32.387Z,100599.63
2023-04-20T08:03:04.136Z,100598.06
2023-04-20T08:05:33.111Z,100597.50
2023-04-20T08:08:01.987Z,100594.84
2023-04-20T08:10:28.959Z,100597.41
2023-04-20T08:12:59.574Z,100593.00
2023-04-20T08:15:26.515Z,100582.31
2023-04-20T08:17:53.517Z,100584.94
2023-04-20T08:20:20.580Z,100583.13
2023-04-20T08:22:47.558Z,100579.34
2023-04-20T08:25:14.773Z,100577.53
2023-04-20T08:27:41.936Z,100566.38
2023-04-20T08:30:09.202Z,100565.53
2023-04-20T08:32:36.142Z,100557.38
2023-04-20T08:35:05.847Z,100549.41
2023-04-20T08:37:33.335Z,100543.84
2023-04-20T08:40:00.279Z,100536.50
2023-04-20T08:42:27.142Z,100532.53
2023-04-20T08:44:57.146Z,100527.97
2023-04-20T08:47:36.897Z,100527.84
2023-04-20T08:50:13.215Z,100525.28
2023-04-20T08:53:10.252Z,100522.25
2023-04-20T08:56:19.938Z,100519.72
2023-04-20T08:58:50.544Z,100528.25
2023-04-20T09:01:42.711Z,100524.66
2023-04-20T09:04:42.080Z,100523.25
2023-04-20T09:07:34.717Z,100532.06
2023-04-20T09:10:07.893Z,100532.31
2023-04-20T09:12:42.861Z,100525.47
2023-04-20T09:15:10.933Z,100518.56
2023-04-20T09:17:40.866Z,100519.44
2023-04-20T09:20:08.732Z,100501.88
2023-04-20T09:22:37.316Z,100499.03
2023-04-20T09:25:20.422Z,100496.81
2023-04-20T09:27:58.826Z,100500.16
2023-04-20T09:30:26.215Z,100506.44
2023-04-20T09:33:08.557Z,100504.72
2023-04-20T09:35:36.406Z,100508.94
2023-04-20T09:38:04.119Z,100501.13
2023-04-20T09:40:33.316Z,100495.03
2023-04-20T09:43:14.815Z,100491.66
2023-04-20T09:45:42.985Z,100491.94
2023-04-20T09:48:10.502Z,100480.16
2023-04-20T09:50:49.325Z,100483.56
2023-04-20T09:53:20.133Z,100490.28
2023-04-20T09:55:52.270Z,100470.81
2023-04-20T09:58:21.098Z,100466.94
2023-04-20T10:00:48.748Z,100472.78
2023-04-20T10:03:20.514Z,100469.75
2023-04-20T10:05:47.738Z,100472.44
2023-04-20T10:08:16.183Z,100480.28
2023-04-20T10:10:45.568Z,100473.84
2023-04-20T10:13:12.631Z,100462.59
2023-04-20T10:15:41.523Z,100468.50
2023-04-20T10:18:19.895Z,100459.88
2023-04-20T10:20:47.109Z,100459.38
2023-04-20T10:23:16.480Z,100467.00
2023-04-20T10:25:45.469Z,100451.75
2023-04-20T10:28:12.631Z,100460.22
2023-04-20T10:30:51.367Z,100449.16
2023-04-20T10:33:18.602Z,100451.75
2023-04-20T10:35:46.029Z,100449.59
2023-04-20T10:38:13.296Z,100436.06
2023-04-20T10:40:40.301Z,100433.38
2023-04-20T10:43:21.598Z,100437.53
2023-04-20T10:45:50.326Z,100434.22
2023-04-20T10:48:18.354Z,100437.13
2023-04-20T10:50:45.615Z,100429.44
2023-04-20T10:53:23.438Z,100438.31
2023-04-20T10:56:01.235Z,100422.84
2023-04-20T10:58:28.370Z,100421.63
2023-04-20T11:01:02.961Z,100427.84
2023-04-20T11:03:31.328Z,100419.72
2023-04-20T11:06:04.668Z,100416.75
2023-04-20T11:08:42.250Z,100412.81
2023-04-20T11:11:32.872Z,100401.00
2023-04-20T11:14:08.269Z,100401.59
2023-04-20T11:16:48.067Z,100379.19
2023-04-20T11:19:38.914Z,100376.75
2023-04-20T11:22:06.963Z,100377.56
2023-04-20T11:24:34.483Z,100379.53
2023-04-20T11:27:02.984Z,100377.97
2023-04-20T11:29:38.660Z,100380.75
2023-04-20T11:32:08.249Z,100382.59
2023-04-20T11:34:36.460Z,100391.34
2023-04-20T11:37:08.179Z,100391.03
2023-04-20T11:39:35.515Z,100378.94
2023-04-20T11:42:02.990Z,100376.47
2023-04-20T11:44:29.733Z,100370.47
2023-04-20T11:46:57.630Z,100367.09
2023-04-20T11:49:26.791Z,100371.38
2023-04-20T11:51:54.121Z,100368.91
2023-04-20T11:54:22.116Z,100380.63
2023-04-20T11:56:48.990Z,100383.88
2023-04-20T11:59:17.065Z,100397.16
2023-04-20T12:01:44.255Z,100404.63
2023-04-20T12:04:11.172Z,100396.63
2023-04-20T12:06:38.132Z,100381.66
2023-04-20T12:09:07.589Z,100376.59
2023-04-20T12:11:34.711Z,100371.97
2023-04-20T12:14:01.733Z,100371.56
2023-04-20T12:16:28.615Z,100370.81
2023-04-20T12:18:56.325Z,100363.53
2023-04-20T12:21:24.687Z,100354.56
2023-04-20T12:23:51.989Z,100361.31
2023-04-20T12:26:18.927Z,100368.97
2023-04-20T12:28:45.793Z,100388.09
2023-04-20T12:31:15.640Z,100402.44
2023-04-20T12:33:43.485Z,100402.66
2023-04-20T12:36:11.393Z,100419.22
2023-04-20T12:38:39.674Z,100423.75
2023-04-20T12:41:06.678Z,100418.91
2023-04-20T12:43:33.714Z,100412.78
2023-04-20T12:46:04.182Z,100410.34
2023-04-20T12:48:32.279Z,100410.72
2023-04-20T12:50:59.457Z,100409.84
2023-04-20T12:53:26.149Z,100400.81
2023-04-20T12:56:00.270Z,100410.28
2023-04-20T12:58:28.172Z,100407.31
2023-04-20T13:00:54.995Z,100408.59
2023-04-20T13:03:21.956Z,100400.97
2023-04-20T13:05:49.534Z,100401.44
2023-04-20T13:08:16.700Z,100399.28
2023-04-20T13:10:43.950Z,100390.75
2023-04-20T13:13:11.786Z,100386.72
2023-04-20T13:15:39.607Z,100383.63
2023-04-20T13:18:09.823Z,100388.75
2023-04-20T13:20:37.050Z,100388.88
2023-04-20T13:23:04.293Z,100395.53
2023-04-20T13:25:33.387Z,100397.59
2023-04-20T13:28:05.171Z,100387.88
2023-04-20T13:30:32.411Z,100384.81
2023-04-20T13:33:02.690Z,100378.63
2023-04-20T13:35:29.453Z,100383.56
2023-04-20T13:37:56.293Z,100375.72
2023-04-20T13:40:24.270Z,100375.19
2023-04-20T13:42:51.025Z,100375.31
2023-04-20T13:45:20.458Z,100380.13
2023-04-20T13:47:47.413Z,100391.06
2023-04-20T13:50:14.398Z,100383.47
2023-04-20T13:52:41.517Z,100384.38
2023-04-20T13:55:08.419Z,100389.03
2023-04-20T13:57:35.204Z,100381.34
2023-04-20T14:00:02.569Z,100386.47
2023-04-20T14:02:31.909Z,100383.53
2023-04-20T14:04:58.932Z,100383.06
2023-04-20T14:07:26.172Z,100388.06
2023-04-20T14:09:56.476Z,100394.84
2023-04-20T14:12:23.950Z,100400.28
2023-04-20T14:14:51.064Z,100397.63
2023-04-20T14:17:18.429Z,100411.59
2023-04-20T14:19:45.562Z,100407.31
2023-04-20T14:22:12.541Z,100416.47
2023-04-20T14:24:40.874Z,100410.56
2023-04-20T14:27:07.655Z,100414.34
2023-04-20T14:29:34.560Z,100419.72
2023-04-20T14:32:01.315Z,100414.91
2023-04-20T14:34:28.702Z,100413.53
2023-04-20T14:36:55.682Z,100403.56
2023-04-20T14:39:23.487Z,100407.31
2023-04-20T14:41:50.482Z,100400.03
2023-04-20T14:44:17.389Z,100402.16
2023-04-20T14:46:44.392Z,100406.16
2023-04-20T14:49:11.462Z,100415.31
2023-04-20T14:51:38.089Z,100409.94
2023-04-20T14:54:05.037Z,100404.28
2023-04-20T14:56:31.836Z,100411.53
2023-04-20T14:58:59.779Z,100405.66
2023-04-20T15:01:27.713Z,100390.09
2023-04-20T15:03:55.256Z,100383.06
2023-04-20T15:06:22.406Z,100380.53
2023-04-20T15:08:49.110Z,100375.19
2023-04-20T15:11:15.979Z,100379.97
2023-04-20T15:13:43.856Z,100361.59
2023-04-20T15:16:10.917Z,100370.25
2023-04-20T15:18:37.664Z,100360.59
2023-04-20T15:21:05.362Z,100365.47
2023-04-20T15:23:32.017Z,100366.91
2023-04-20T15:26:01.569Z,100366.44
2023-04-20T15:28:28.700Z,100372.44
2023-04-20T15:30:58.214Z,100367.88
2023-04-20T15:33:24.976Z,100360.94
2023-04-20T15:35:51.815Z,100372.25
2023-04-20T15:38:18.814Z,100376.03
2023-04-20T15:40:46.728Z,100386.84
2023-04-20T15:43:13.458Z,100385.81
2023-04-20T15:45:41.278Z,100380.97
2023-04-20T15:48:09.691Z,100381.22
2023-04-20T15:50:38.106Z,100378.00
2023-04-20T15:53:04.900Z,100380.69
2023-04-20T15:55:34.617Z,100379.94
2023-04-20T15:58:01.666Z,100383.16
2023-04-20T16:00:28.691Z,100375.63
2023-04-20T16:02:55.605Z,100377.78
2023-04-20T16:05:22.909Z,100377.78
2023-04-20T16:08:00.787Z,100379.41
2023-04-20T16:10:27.786Z,100375.66
2023-04-20T16:12:56.474Z,100376.16
2023-04-20T16:15:24.851Z,100368.09
2023-04-20T16:17:52.256Z,100371.34
2023-04-20T16:20:19.764Z,100369.72
2023-04-20T16:22:49.862Z,100379.94
2023-04-20T16:25:27.932Z,100377.25
2023-04-20T16:27:55.052Z,100379.16
2023-04-20T16:30:22.091Z,100369.19
2023-04-20T16:32:53.074Z,100374.28
2023-04-20T16:35:20.698Z,100368.16
2023-04-20T16:38:00.851Z,100371.06
2023-04-20T16:40:29.773Z,100372.44
2023-04-20T16:43:01.813Z,100368.94
2023-04-20T16:45:30.183Z,100362.22
2023-04-20T16:47:59.953Z,100367.06
2023-04-20T16:50:27.160Z,100366.50
2023-04-20T16:52:54.440Z,100367.56
2023-04-20T16:55:35.268Z,100364.34
2023-04-20T16:58:03.569Z,100369.72
2023-04-20T17:00:32.338Z,100372.41
2023-04-20T17:03:03.785Z,100377.75
2023-04-20T17:05:38.483Z,100372.38
2023-04-20T17:08:06.988Z,100368.09
2023-04-20T17:10:35.828Z,100369.69
2023-04-20T17:13:06.506Z,100356.25
2023-04-20T17:15:36.812Z,100365.91
2023-04-20T17:18:07.842Z,100369.16
2023-04-20T17:20:35.024Z,100364.03
2023-04-20T17:23:02.230Z,100371.03
2023-04-20T17:25:29.650Z,100367.00
2023-04-20T17:27:57.015Z,100367.53
2023-04-20T17:30:24.308Z,100372.34
2023-04-20T17:33:10.200Z,100381.22
2023-04-20T17:35:58.643Z,100383.09
2023-04-20T17:38:46.993Z,100390.59
2023-04-20T17:41:17.200Z,100395.94
2023-04-20T17:43:44.438Z,100400.22
2023-04-20T17:46:12.421Z,100409.56
2023-04-20T17:48:39.368Z,100408.75
2023-04-20T17:51:06.620Z,100417.34
2023-04-20T17:53:33.541Z,100425.41
2023-04-20T17:56:11.077Z,100414.13
2023-04-20T17:58:37.906Z,100427.53
2023-04-20T18:01:05.156Z,100432.34
2023-04-20T18:03:32.360Z,100428.53
2023-04-20T18:05:59.540Z,100432.75
2023-04-20T18:08:26.594Z,100433.53
2023-04-20T18:10:54.356Z,100442.38
2023-04-20T18:13:23.217Z,100443.41
2023-04-20T18:15:50.342Z,100452.72
2023-04-20T18:18:18.615Z,100441.69
2023-04-20T18:20:45.971Z,100443.78
2023-04-20T18:23:15.745Z,100446.09
2023-04-20T18:25:45.149Z,100457.28
2023-04-20T18:28:13.038Z,100460.66
2023-04-20T18:30:40.848Z,100462.56
2023-04-20T18:33:10.358Z,100456.56
2023-04-20T18:35:37.912Z,100452.84
2023-04-20T18:38:06.132Z,100450.22
2023-04-20T18:40:38.843Z,100436.38
2023-04-20T18:43:06.833Z,100431.81
2023-04-20T18:45:35.694Z,100442.81
2023-04-20T18:48:05.877Z,100442.06
2023-04-20T18:50:34.094Z,100450.41
2023-04-20T18:53:01.142Z,100459.84
2023-04-20T18:55:28.784Z,100463.34
2023-04-20T18:57:56.099Z,100465.47
2023-04-20T19:00:26.151Z,100465.25
2023-04-20T19:02:53.234Z,100467.94
2023-04-20T19:05:20.658Z,100478.41
2023-04-20T19:07:49.842Z,100474.16
2023-04-20T19:10:16.731Z,100467.78
2023-04-20T19:12:44.255Z,100472.28
2023-04-20T19:15:14.317Z,100474.72
2023-04-20T19:17:42.928Z,100470.72
2023-04-20T19:20:10.468Z,100475.84
2023-04-20T19:22:37.634Z,100467.25
2023-04-20T19:25:05.674Z,100470.38
2023-04-20T19:27:32.898Z,100480.53
2023-04-20T19:30:02.273Z,100473.25
2023-04-20T19:32:29.684Z,100469.19
2023-04-20T19:34:59.260Z,100476.09
2023-04-20T19:37:27.018Z,100476.88
2023-04-20T19:39:54.925Z,100478.19
2023-04-20T19:42:25.482Z,100484.34
2023-04-20T19:44:53.640Z,100473.88
2023-04-20T19:47:21.448Z,100474.16
2023-04-20T19:49:48.945Z,100469.28
2023-04-20T19:52:21.540Z,100469.00
2023-04-20T19:54:51.326Z,100479.72
2023-04-20T19:57:18.297Z,100469.25
2023-04-20T19:59:45.416Z,100478.34
2023-04-20T20:02:13.016Z,100466.03
2023-04-20T20:04:40.319Z,100472.16
2023-04-20T20:07:08.573Z,100468.91
2023-04-20T20:09:40.915Z,100472.59
2023-04-20T20:12:10.957Z,100484.78
2023-04-20T20:14:38.613Z,100493.00
2023-04-20T20:17:08.270Z,100479.88
2023-04-20T20:19:38.625Z,100480.38
2023-04-20T20:22:10.683Z,100472.84
2023-04-20T20:24:39.567Z,100474.91
2023-04-20T20:27:06.982Z,100468.41
2023-04-20T20:29:34.490Z,100469.94
2023-04-20T20:32:04.631Z,100467.53
2023-04-20T20:34:32.307Z,100464.84
2023-04-20T20:36:59.474Z,100469.38
2023-04-20T20:39:26.639Z,100466.34
2023-04-20T20:41:54.523Z,100467.44
2023-04-20T20:44:25.628Z,100463.69
2023-04-20T20:46:55.570Z,100462.75
2023-04-20T20:49:22.786Z,100461.94
2023-04-20T20:51:50.461Z,100464.72
2023-04-20T20:54:21.597Z,100467.78
2023-04-20T20:56:49.271Z,100465.75
2023-04-20T20:59:16.660Z,100466.31
2023-04-20T21:01:51.085Z,100465.00
2023-04-20T21:04:20.796Z,100466.97
2023-04-20T21:06:48.315Z,100469.19
2023-04-20T21:09:16.413Z,100461.28
2023-04-20T21:11:45.158Z,100465.44
2023-04-20T21:14:19.098Z,100468.75
2023-04-20T21:16:48.732Z,100466.13
2023-04-20T21:19:15.786Z,100471.19
2023-04-20T21:21:42.757Z,100465.97
2023-04-20T21:24:12.820Z,100470.69
2023-04-20T21:26:40.085Z,100466.06
2023-04-20T21:29:13.307Z,100474.38
2023-04-20T21:31:43.610Z,100461.41
2023-04-20T21:34:14.797Z,100454.63
2023-04-20T21:36:42.598Z,100454.50
2023-04-20T21:39:10.130Z,100446.84
2023-04-20T21:41:47.017Z,100448.34
2023-04-20T21:44:15.787Z,100433.75
2023-04-20T21:46:43.852Z,100440.81
2023-04-20T21:49:11.081Z,100439.06
2023-04-20T21:51:38.904Z,100435.44
2023-04-20T21:54:09.037Z,100436.06
2023-04-20T21:56:39.452Z,100442.63
2023-04-20T21:59:06.928Z,100442.78
2023-04-20T22:01:36.976Z,100448.38
2023-04-20T22:04:13.933Z,100450.31
2023-04-20T22:06:41.736Z,100446.19
2023-04-20T22:09:11.978Z,100441.34
2023-04-20T22:11:39.829Z,100451.22
2023-04-20T22:14:08.443Z,100451.91
2023-04-20T22:16:39.170Z,100443.97
2023-04-20T22:19:15.634Z,100442.34
2023-04-20T22:21:43.994Z,100443.88
2023-04-20T22:24:11.516Z,100444.31
2023-04-20T22:26:42.002Z,100443.34
2023-04-20T22:29:09.056Z,100443.84
2023-04-20T22:31:37.670Z,100448.06
2023-04-20T22:34:10.671Z,100437.78
2023-04-20T22:36:42.289Z,100438.16
2023-04-20T22:39:09.808Z,100438.09
2023-04-20T22:41:45.600Z,100434.88
2023-04-20T22:44:18.530Z,100432.34
2023-04-20T22:46:47.026Z,100432.81
2023-04-20T22:52:08.806Z,100434.75
2023-04-20T22:54:37.930Z,100436.84
2023-04-20T22:57:05.276Z,100439.19
2023-04-20T22:59:32.498Z,100433.75
2023-04-20T23:01:59.556Z,100436.09
2023-04-20T23:04:27.238Z,100435.53
2023-04-20T23:06:56.048Z,100437.66
2023-04-20T23:09:25.945Z,100434.97
2023-04-20T23:12:01.850Z,100434.16
2023-04-20T23:14:28.781Z,100439.16
2023-04-20T23:16:55.685Z,100436.50
2023-04-20T23:19:22.767Z,100433.00
2023-04-20T23:21:50.016Z,100434.06
2023-04-20T23:24:19.588Z,100440.69
2023-04-20T23:26:47.089Z,100432.13
2023-04-20T23:29:15.314Z,100433.16
2023-04-20T23:31:42.396Z,100437.91
2023-04-20T23:34:09.443Z,100437.56
2023-04-20T23:36:39.991Z,100438.88
2023-04-20T23:39:07.112Z,100439.94
2023-04-20T23:41:34.511Z,100446.28
2023-04-20T23:44:02.915Z,100443.88
2023-04-20T23:46:30.544Z,100433.44
2023-04-20T23:49:00.920Z,100443.53
2023-04-20T23:51:30.125Z,100438.22
2023-04-20T23:53:58.618Z,100432.75
2023-04-20T23:56:26.559Z,100430.34
2023-04-20T23:58:59.645Z,100435.13
